createdAt,value
2019-03-29T00:01:04.269Z,3.93
2019-03-29T00:03:35.490Z,5.30
2019-03-29T00:06:06.780Z,8.63
2019-03-29T00:08:38.222Z,13.43
2019-03-29T00:11:09.475Z,8.33
2019-03-29T00:13:40.738Z,5.07
2019-03-29T00:16:12.008Z,8.73
2019-03-29T00:18:43.266Z,11.40
2019-03-29T00:21:14.539Z,9.10
2019-03-29T00:23:45.800Z,11.83
2019-03-29T00:26:17.187Z,7.70
2019-03-29T00:28:48.442Z,10.07
2019-03-29T00:31:19.694Z,10.70
2019-03-29T00:33:50.966Z,5.90
2019-03-29T00:36:22.208Z,8.80
2019-03-29T00:38:53.476Z,7.60
2019-03-29T00:41:25.101Z,10.00
2019-03-29T00:43:56.551Z,10.43
2019-03-29T00:46:27.875Z,8.40
2019-03-29T00:48:59.149Z,11.90
2019-03-29T00:51:30.406Z,6.60
2019-03-29T00:54:02.058Z,8.37
2019-03-29T00:56:33.608Z,22.97
2019-03-29T00:59:04.969Z,10.40
2019-03-29T01:01:36.200Z,8.60
2019-03-29T01:04:07.404Z,6.30
2019-03-29T01:06:39.223Z,6.17
2019-03-29T01:09:10.778Z,5.23
2019-03-29T01:11:42.013Z,5.40
2019-03-29T01:14:13.232Z,15.00
2019-03-29T01:16:44.451Z,13.13
2019-03-29T01:19:15.714Z,17.33
2019-03-29T01:21:46.998Z,6.37
2019-03-29T01:24:18.219Z,6.20
2019-03-29T01:26:49.582Z,8.53
2019-03-29T01:29:20.881Z,8.10
2019-03-29T01:31:52.128Z,9.87
2019-03-29T01:34:23.412Z,4.47
2019-03-29T01:36:54.661Z,9.90
2019-03-29T01:39:25.844Z,11.27
2019-03-29T01:41:57.157Z,18.43
2019-03-29T01:44:28.388Z,10.00
2019-03-29T01:46:59.634Z,15.60
2019-03-29T01:49:30.944Z,10.10
2019-03-29T01:52:02.174Z,10.70
2019-03-29T01:54:33.568Z,12.43
2019-03-29T01:57:04.789Z,8.10
2019-03-29T01:59:36.038Z,13.83
2019-03-29T02:02:07.352Z,9.70
2019-03-29T02:04:38.573Z,11.90
2019-03-29T02:07:09.826Z,14.57
2019-03-29T02:09:41.061Z,13.50
2019-03-29T02:12:12.271Z,8.30
2019-03-29T02:14:45.058Z,9.63
2019-03-29T02:17:16.495Z,7.63
2019-03-29T02:19:47.993Z,5.43
2019-03-29T02:22:19.432Z,8.80
2019-03-29T02:24:50.634Z,18.23
2019-03-29T02:27:21.867Z,8.97
2019-03-29T02:29:53.144Z,10.70
2019-03-29T02:32:25.151Z,12.70
2019-03-29T02:34:56.909Z,10.20
2019-03-29T02:37:29.520Z,7.50
2019-03-29T02:40:00.854Z,9.90
2019-03-29T02:42:32.117Z,11.13
2019-03-29T02:45:03.922Z,12.00
2019-03-29T02:47:35.242Z,8.87
2019-03-29T02:50:08.580Z,10.70
2019-03-29T02:52:39.794Z,7.67
2019-03-29T02:55:11.257Z,15.03
2019-03-29T02:57:42.535Z,8.50
2019-03-29T03:00:14.653Z,13.50
2019-03-29T03:02:45.861Z,10.17
2019-03-29T03:05:17.113Z,10.93
2019-03-29T03:07:48.414Z,11.40
2019-03-29T03:10:19.768Z,10.83
2019-03-29T03:12:51.013Z,12.50
2019-03-29T03:15:22.279Z,14.43
2019-03-29T03:17:53.543Z,9.67
2019-03-29T03:20:24.724Z,11.87
2019-03-29T03:22:55.936Z,16.30
2019-03-29T03:25:27.200Z,13.50
2019-03-29T03:27:58.532Z,10.83
2019-03-29T03:30:29.685Z,12.23
2019-03-29T03:33:00.934Z,21.87
2019-03-29T03:35:32.182Z,13.07
2019-03-29T03:38:03.509Z,14.40
2019-03-29T03:40:34.825Z,15.47
2019-03-29T03:43:06.055Z,14.73
2019-03-29T03:45:37.429Z,18.40
2019-03-29T03:48:08.687Z,10.80
2019-03-29T03:50:49.073Z,17.37
2019-03-29T03:53:20.415Z,12.23
2019-03-29T03:55:53.493Z,10.03
2019-03-29T03:58:26.777Z,11.43
2019-03-29T04:01:00.275Z,14.10
2019-03-29T04:03:31.500Z,13.37
2019-03-29T04:06:02.744Z,7.67
2019-03-29T04:08:33.983Z,15.93
2019-03-29T04:11:05.474Z,11.57
2019-03-29T04:13:36.729Z,15.10
2019-03-29T04:16:07.938Z,13.83
2019-03-29T04:18:39.167Z,12.30
2019-03-29T04:21:10.612Z,15.80
2019-03-29T04:23:41.877Z,14.50
2019-03-29T04:26:13.077Z,13.90
2019-03-29T04:28:44.312Z,13.07
2019-03-29T04:31:15.584Z,11.47
2019-03-29T04:33:46.852Z,9.67
2019-03-29T04:36:18.108Z,10.33
2019-03-29T04:38:49.390Z,9.97
2019-03-29T04:41:20.559Z,9.00
2019-03-29T04:43:51.803Z,11.50
2019-03-29T04:46:23.051Z,16.27
2019-03-29T04:48:54.537Z,16.30
2019-03-29T04:51:25.766Z,9.77
2019-03-29T04:53:57.025Z,14.97
2019-03-29T04:56:28.292Z,19.70
2019-03-29T04:58:59.555Z,11.73
2019-03-29T05:01:30.823Z,12.73
2019-03-29T05:04:02.051Z,22.03
2019-03-29T05:06:33.281Z,12.93
2019-03-29T05:09:05.494Z,18.90
2019-03-29T05:11:36.735Z,11.70
2019-03-29T05:14:07.952Z,9.10
2019-03-29T05:16:39.275Z,21.90
2019-03-29T05:19:10.512Z,12.70
2019-03-29T05:21:41.760Z,6.77
2019-03-29T05:24:12.997Z,10.33
2019-03-29T05:26:44.224Z,18.23
2019-03-29T05:29:15.693Z,10.87
2019-03-29T05:31:47.018Z,13.00
2019-03-29T05:34:18.309Z,9.53
2019-03-29T05:36:49.585Z,15.70
2019-03-29T05:39:20.888Z,14.60
2019-03-29T05:41:53.444Z,13.63
2019-03-29T05:44:24.698Z,10.13
2019-03-29T05:46:56.055Z,13.10
2019-03-29T05:49:27.301Z,9.07
2019-03-29T05:51:58.574Z,12.70
2019-03-29T05:54:29.911Z,14.37
2019-03-29T05:57:01.242Z,7.13
2019-03-29T05:59:32.468Z,14.67
2019-03-29T06:02:03.732Z,12.43
2019-03-29T06:04:34.994Z,10.20
2019-03-29T06:07:06.369Z,10.97
2019-03-29T06:09:37.647Z,12.07
2019-03-29T06:12:08.949Z,14.03
2019-03-29T06:14:40.596Z,10.80
2019-03-29T06:17:11.852Z,13.93
2019-03-29T06:19:43.187Z,18.23
2019-03-29T06:22:14.404Z,13.30
2019-03-29T06:24:45.678Z,10.10
2019-03-29T06:27:16.955Z,10.13
2019-03-29T06:29:48.202Z,12.13
2019-03-29T06:32:19.459Z,17.77
2019-03-29T06:34:50.696Z,10.40
2019-03-29T06:37:23.515Z,18.73
2019-03-29T06:39:55.753Z,18.17
2019-03-29T06:42:27.074Z,13.37
2019-03-29T06:45:00.651Z,16.63
2019-03-29T06:47:31.931Z,16.03
2019-03-29T06:50:03.209Z,15.07
2019-03-29T06:52:34.436Z,11.17
2019-03-29T06:55:05.975Z,12.63
2019-03-29T06:57:37.182Z,12.77
2019-03-29T07:00:08.896Z,13.87
2019-03-29T07:02:40.138Z,11.70
2019-03-29T07:05:11.493Z,15.20
2019-03-29T07:07:44.573Z,14.07
2019-03-29T07:10:15.813Z,12.63
2019-03-29T07:12:47.062Z,12.50
2019-03-29T07:15:18.319Z,16.63
2019-03-29T07:17:49.853Z,13.30
2019-03-29T07:20:21.161Z,12.10
2019-03-29T07:22:52.435Z,12.90
2019-03-29T07:25:23.700Z,14.37
2019-03-29T07:27:54.978Z,12.97
2019-03-29T07:30:26.231Z,10.57
2019-03-29T07:32:57.492Z,16.43
2019-03-29T07:35:28.857Z,13.10
2019-03-29T07:38:00.133Z,13.90
2019-03-29T07:40:31.396Z,13.80
2019-03-29T07:43:02.619Z,10.53
2019-03-29T07:45:33.897Z,15.77
2019-03-29T07:48:05.242Z,12.30
2019-03-29T07:50:36.506Z,14.47
2019-03-29T07:53:07.866Z,15.67
2019-03-29T07:55:39.168Z,12.53
2019-03-29T07:58:10.557Z,16.60
2019-03-29T08:00:42.520Z,16.57
2019-03-29T08:03:13.903Z,18.70
2019-03-29T08:05:45.267Z,14.50
2019-03-29T08:08:24.012Z,17.23
2019-03-29T08:10:53.467Z,16.20
2019-03-29T08:13:23.433Z,14.23
2019-03-29T08:15:54.654Z,11.67
2019-03-29T08:18:25.935Z,14.50
2019-03-29T08:20:57.307Z,19.63
2019-03-29T08:23:28.977Z,15.27
2019-03-29T08:26:00.294Z,13.57
2019-03-29T08:28:31.574Z,16.47
2019-03-29T08:31:02.788Z,13.77
2019-03-29T08:33:34.058Z,17.13
2019-03-29T08:36:05.272Z,14.13
2019-03-29T08:38:36.598Z,10.07
2019-03-29T08:41:07.847Z,12.00
2019-03-29T08:43:39.074Z,16.90
2019-03-29T08:46:10.336Z,11.60
2019-03-29T08:48:41.598Z,13.00
2019-03-29T08:51:12.865Z,12.03
2019-03-29T08:53:44.138Z,12.20
2019-03-29T08:56:15.930Z,11.53
2019-03-29T08:58:47.315Z,12.13
2019-03-29T09:01:19.481Z,15.43
2019-03-29T09:04:04.564Z,9.43
2019-03-29T09:06:24.479Z,10.63
2019-03-29T09:08:56.816Z,10.90
2019-03-29T09:11:28.087Z,10.30
2019-03-29T09:13:59.387Z,8.60
2019-03-29T09:16:30.625Z,11.90
2019-03-29T09:19:01.873Z,16.87
2019-03-29T09:21:33.097Z,9.63
2019-03-29T09:24:04.361Z,8.40
2019-03-29T09:26:35.624Z,12.30
2019-03-29T09:29:06.893Z,8.23
2019-03-29T09:31:38.195Z,8.90
2019-03-29T09:34:09.423Z,6.70
2019-03-29T09:36:40.669Z,7.27
2019-03-29T09:39:11.928Z,9.03
2019-03-29T09:41:43.189Z,8.23
2019-03-29T09:44:14.588Z,7.33
2019-03-29T09:46:45.784Z,6.67
2019-03-29T09:49:17.105Z,8.20
2019-03-29T09:51:48.306Z,7.33
2019-03-29T09:54:20.528Z,6.10
2019-03-29T09:56:51.915Z,6.63
2019-03-29T09:59:23.410Z,8.43
2019-03-29T10:01:54.738Z,6.87
2019-03-29T10:04:27.084Z,8.70
2019-03-29T10:06:58.334Z,4.90
2019-03-29T10:09:29.802Z,5.80
2019-03-29T10:12:01.142Z,6.27
2019-03-29T10:14:33.645Z,6.60
2019-03-29T10:17:05.079Z,5.57
2019-03-29T10:19:36.288Z,4.80
2019-03-29T10:22:07.549Z,5.10
2019-03-29T10:24:38.775Z,6.43
2019-03-29T10:27:10.267Z,4.37
2019-03-29T10:29:41.481Z,3.90
2019-03-29T10:32:12.747Z,3.67
2019-03-29T10:34:44.051Z,5.13
2019-03-29T10:37:15.325Z,4.70
2019-03-29T10:39:46.573Z,4.57
2019-03-29T10:42:17.860Z,4.53
2019-03-29T10:44:49.629Z,4.57
2019-03-29T10:47:21.180Z,8.80
2019-03-29T10:49:52.557Z,11.53
2019-03-29T10:52:23.816Z,6.70
2019-03-29T10:54:55.062Z,5.80
2019-03-29T10:57:27.417Z,6.93
2019-03-29T10:59:58.698Z,5.23
2019-03-29T11:02:29.974Z,5.00
2019-03-29T11:05:01.214Z,5.03
2019-03-29T11:07:32.462Z,4.87
2019-03-29T11:10:03.676Z,3.57
2019-03-29T11:12:34.914Z,5.60
2019-03-29T11:15:07.017Z,6.80
2019-03-29T11:17:38.351Z,8.17
2019-03-29T11:20:09.692Z,5.13
2019-03-29T11:22:40.980Z,6.07
2019-03-29T11:25:12.200Z,5.50
2019-03-29T11:27:43.623Z,4.60
2019-03-29T11:30:14.857Z,9.37
2019-03-29T11:32:46.274Z,5.20
2019-03-29T11:35:17.543Z,5.53
2019-03-29T11:37:48.834Z,7.37
2019-03-29T11:40:20.296Z,8.10
2019-03-29T11:42:51.559Z,12.53
2019-03-29T11:45:22.781Z,4.30
2019-03-29T11:48:07.380Z,5.70
2019-03-29T11:50:29.130Z,11.93
2019-03-29T11:53:00.291Z,6.97
2019-03-29T11:55:31.641Z,4.27
2019-03-29T11:58:02.910Z,4.37
2019-03-29T12:00:38.869Z,4.27
2019-03-29T12:03:10.165Z,5.07
2019-03-29T12:05:41.652Z,4.27
2019-03-29T12:08:12.950Z,5.40
2019-03-29T12:10:44.228Z,6.07
2019-03-29T12:13:15.629Z,4.67
2019-03-29T12:15:46.832Z,4.00
2019-03-29T12:18:18.104Z,5.57
2019-03-29T12:20:49.390Z,4.07
2019-03-29T12:23:20.657Z,5.77
2019-03-29T12:25:51.941Z,13.60
2019-03-29T12:28:23.168Z,6.13
2019-03-29T12:30:54.448Z,6.00
2019-03-29T12:33:25.670Z,4.37
2019-03-29T12:35:56.892Z,5.60
2019-03-29T12:38:28.167Z,5.10
2019-03-29T12:40:59.408Z,4.90
2019-03-29T12:43:30.684Z,4.10
2019-03-29T12:46:02.199Z,4.47
2019-03-29T12:48:33.519Z,4.90
2019-03-29T12:51:04.832Z,4.33
2019-03-29T12:53:36.052Z,3.67
2019-03-29T12:56:07.304Z,3.90
2019-03-29T12:58:38.533Z,6.40
2019-03-29T13:01:10.578Z,6.27
2019-03-29T13:03:42.159Z,3.73
2019-03-29T13:06:13.437Z,2.70
2019-03-29T13:08:44.669Z,4.57
2019-03-29T13:11:15.942Z,7.50
2019-03-29T13:13:47.177Z,3.67
2019-03-29T13:16:18.434Z,4.13
2019-03-29T13:18:49.796Z,5.27
2019-03-29T13:21:21.023Z,6.50
2019-03-29T13:23:52.427Z,3.67
2019-03-29T13:26:23.852Z,4.73
2019-03-29T13:28:55.100Z,4.00
2019-03-29T13:31:26.418Z,5.40
2019-03-29T13:33:57.625Z,3.67
2019-03-29T13:36:28.961Z,3.83
2019-03-29T13:39:00.213Z,4.10
2019-03-29T13:41:32.207Z,4.43
2019-03-29T13:44:03.606Z,5.93
2019-03-29T13:46:34.881Z,3.43
2019-03-29T13:49:06.711Z,4.60
2019-03-29T13:51:38.265Z,4.30
2019-03-29T13:54:09.631Z,4.57
2019-03-29T13:56:40.917Z,3.07
2019-03-29T13:59:12.341Z,7.00
2019-03-29T14:01:43.625Z,3.10
2019-03-29T14:04:14.889Z,3.80
2019-03-29T14:06:46.166Z,4.07
2019-03-29T14:09:17.417Z,10.40
2019-03-29T14:11:48.678Z,3.50
2019-03-29T14:14:19.957Z,4.23
2019-03-29T14:16:51.230Z,11.00
2019-03-29T14:19:25.628Z,4.00
2019-03-29T14:21:55.507Z,2.30
2019-03-29T14:24:26.772Z,4.17
2019-03-29T14:26:58.058Z,8.13
2019-03-29T14:29:29.431Z,4.07
2019-03-29T14:32:00.694Z,5.60
2019-03-29T14:34:31.981Z,5.43
2019-03-29T14:37:03.262Z,3.23
2019-03-29T14:39:34.538Z,4.77
2019-03-29T14:42:05.820Z,3.20
2019-03-29T14:44:37.038Z,3.40
2019-03-29T14:47:08.433Z,3.00
2019-03-29T14:49:39.723Z,3.60
2019-03-29T14:52:11.030Z,4.97
2019-03-29T14:54:42.337Z,3.73
2019-03-29T14:57:15.230Z,3.43
2019-03-29T14:59:46.570Z,3.87
2019-03-29T15:02:17.807Z,5.07
2019-03-29T15:04:49.142Z,3.43
2019-03-29T15:07:21.195Z,4.70
2019-03-29T15:09:53.989Z,5.27
2019-03-29T15:12:25.495Z,3.90
2019-03-29T15:15:06.032Z,5.27
2019-03-29T15:17:29.947Z,3.87
2019-03-29T15:20:01.332Z,5.40
2019-03-29T15:22:33.154Z,3.60
2019-03-29T15:25:04.608Z,3.27
2019-03-29T15:27:35.907Z,5.17
2019-03-29T15:30:08.144Z,4.77
2019-03-29T15:32:39.372Z,3.00
2019-03-29T15:35:10.872Z,6.20
2019-03-29T15:37:42.270Z,3.80
2019-03-29T15:40:14.066Z,3.87
2019-03-29T15:42:45.396Z,3.50
2019-03-29T15:45:20.798Z,3.53
2019-03-29T15:47:49.899Z,3.50
2019-03-29T15:50:21.307Z,4.13
2019-03-29T15:52:52.595Z,5.40
2019-03-29T15:55:24.063Z,3.23
2019-03-29T15:57:55.387Z,3.70
2019-03-29T16:00:26.698Z,3.17
2019-03-29T16:02:57.993Z,8.17
2019-03-29T16:05:29.574Z,5.90
2019-03-29T16:08:01.319Z,2.93
2019-03-29T16:10:32.601Z,6.00
2019-03-29T16:13:03.848Z,3.60
2019-03-29T16:15:38.169Z,5.00
2019-03-29T16:18:08.346Z,4.30
2019-03-29T16:20:39.638Z,11.50
2019-03-29T16:23:10.908Z,4.00
2019-03-29T16:25:42.197Z,3.10
2019-03-29T16:28:13.483Z,9.33
2019-03-29T16:30:44.761Z,3.77
2019-03-29T16:33:16.094Z,5.70
2019-03-29T16:35:47.772Z,6.63
2019-03-29T16:38:19.048Z,2.63
2019-03-29T16:40:50.399Z,2.30
2019-03-29T16:43:21.781Z,6.43
2019-03-29T16:45:53.073Z,2.70
2019-03-29T16:48:24.389Z,2.23
2019-03-29T16:50:56.030Z,2.40
2019-03-29T16:53:27.359Z,1.90
2019-03-29T16:55:59.067Z,2.30
2019-03-29T16:58:30.306Z,2.17
2019-03-29T17:01:01.671Z,1.40
2019-03-29T17:03:33.076Z,2.77
2019-03-29T17:06:04.558Z,2.27
2019-03-29T17:08:36.128Z,6.07
2019-03-29T17:11:07.443Z,2.40
2019-03-29T17:13:39.049Z,3.00
2019-03-29T17:16:10.333Z,3.43
2019-03-29T17:18:41.597Z,2.43
2019-03-29T17:21:13.009Z,3.43
2019-03-29T17:23:44.374Z,1.73
2019-03-29T17:26:16.249Z,4.50
2019-03-29T17:28:47.962Z,1.77
2019-03-29T17:31:19.744Z,3.33
2019-03-29T17:33:51.148Z,3.27
2019-03-29T17:36:22.430Z,2.47
2019-03-29T17:38:53.717Z,2.30
2019-03-29T17:41:25.029Z,2.83
2019-03-29T17:43:56.408Z,2.00
2019-03-29T17:46:27.685Z,5.80
2019-03-29T17:48:59.000Z,2.77
2019-03-29T17:51:30.229Z,6.93
2019-03-29T17:54:01.624Z,1.90
2019-03-29T17:56:32.891Z,1.67
2019-03-29T17:59:04.242Z,2.27
2019-03-29T18:01:35.504Z,2.40
2019-03-29T18:04:06.905Z,1.70
2019-03-29T18:06:38.234Z,1.63
2019-03-29T18:09:10.287Z,2.97
2019-03-29T18:11:41.666Z,4.93
2019-03-29T18:14:12.938Z,2.07
2019-03-29T18:16:44.253Z,1.70
2019-03-29T18:19:15.559Z,2.17
2019-03-29T18:21:47.237Z,7.83
2019-03-29T18:24:18.608Z,3.70
2019-03-29T18:26:49.935Z,6.20
2019-03-29T18:29:21.228Z,3.80
2019-03-29T18:31:52.739Z,10.60
2019-03-29T18:34:24.257Z,3.50
2019-03-29T18:36:57.938Z,4.77
2019-03-29T18:39:29.278Z,7.13
2019-03-29T18:42:01.386Z,6.87
2019-03-29T18:44:32.731Z,2.00
2019-03-29T18:47:04.113Z,1.70
2019-03-29T18:49:35.526Z,3.83
2019-03-29T18:52:06.874Z,17.27
2019-03-29T18:54:38.378Z,2.00
2019-03-29T18:57:10.078Z,2.87
2019-03-29T18:59:41.664Z,3.43
2019-03-29T19:02:13.231Z,1.80
2019-03-29T19:04:44.509Z,4.70
2019-03-29T19:07:17.802Z,1.63
2019-03-29T19:09:49.176Z,2.53
2019-03-29T19:12:20.470Z,1.53
2019-03-29T19:14:51.953Z,3.97
2019-03-29T19:17:23.732Z,3.07
2019-03-29T19:19:55.055Z,1.57
2019-03-29T19:22:26.460Z,3.13
2019-03-29T19:24:57.988Z,2.83
2019-03-29T19:27:29.813Z,1.80
2019-03-29T19:30:01.156Z,2.03
2019-03-29T19:32:32.474Z,4.77
2019-03-29T19:35:03.713Z,2.23
2019-03-29T19:37:35.162Z,3.00
2019-03-29T19:40:07.045Z,7.77
2019-03-29T19:42:38.587Z,3.23
2019-03-29T19:45:10.866Z,3.33
2019-03-29T19:47:42.704Z,4.23
2019-03-29T19:50:15.999Z,3.30
2019-03-29T19:52:47.282Z,3.27
2019-03-29T19:55:18.723Z,4.70
2019-03-29T19:57:50.213Z,3.10
2019-03-29T20:00:21.912Z,3.17
2019-03-29T20:02:53.300Z,2.27
2019-03-29T20:05:29.489Z,4.10
2019-03-29T20:08:00.762Z,4.00
2019-03-29T20:10:32.368Z,2.00
2019-03-29T20:13:03.995Z,5.53
2019-03-29T20:15:35.357Z,1.97
2019-03-29T20:18:06.889Z,3.53
2019-03-29T20:20:38.716Z,3.43
2019-03-29T20:23:11.538Z,5.47
2019-03-29T20:25:43.091Z,4.50
2019-03-29T20:28:14.764Z,3.10
2019-03-29T20:30:46.765Z,7.07
2019-03-29T20:33:18.253Z,2.50
2019-03-29T20:35:50.175Z,5.60
2019-03-29T20:38:21.501Z,3.03
2019-03-29T20:40:53.204Z,3.57
2019-03-29T20:43:24.775Z,4.30
2019-03-29T20:45:56.190Z,2.43
2019-03-29T20:48:27.754Z,3.50
2019-03-29T20:50:59.493Z,3.77
2019-03-29T20:53:31.342Z,2.70
2019-03-29T20:56:02.764Z,3.83
2019-03-29T20:58:34.218Z,4.33
2019-03-29T21:01:05.684Z,3.50
2019-03-29T21:03:37.382Z,3.13
2019-03-29T21:06:08.907Z,4.30
2019-03-29T21:08:40.246Z,2.97
2019-03-29T21:11:11.843Z,3.03
2019-03-29T21:13:43.886Z,7.43
2019-03-29T21:16:16.090Z,2.10
2019-03-29T21:18:48.119Z,8.40
2019-03-29T21:21:19.562Z,6.33
2019-03-29T21:23:51.401Z,3.77
2019-03-29T21:26:22.958Z,4.20
2019-03-29T21:28:54.375Z,5.50
2019-03-29T21:31:25.909Z,3.17
2019-03-29T21:33:57.529Z,2.43
2019-03-29T21:36:28.910Z,5.43
2019-03-29T21:39:00.284Z,8.43
2019-03-29T21:41:31.655Z,5.10
2019-03-29T21:44:03.121Z,5.83
2019-03-29T21:46:34.590Z,4.17
2019-03-29T21:49:06.213Z,7.47
2019-03-29T21:51:37.479Z,5.20
2019-03-29T21:54:08.739Z,4.20
2019-03-29T21:56:40.443Z,11.13
2019-03-29T21:59:11.812Z,4.50
2019-03-29T22:01:43.031Z,5.03
2019-03-29T22:04:14.599Z,4.20
2019-03-29T22:06:46.032Z,4.73
2019-03-29T22:09:17.736Z,5.63
2019-03-29T22:11:49.281Z,10.67
2019-03-29T22:14:21.339Z,7.03
2019-03-29T22:16:52.619Z,8.93
2019-03-29T22:19:24.067Z,7.57
2019-03-29T22:21:55.461Z,16.83
2019-03-29T22:24:26.798Z,7.03
2019-03-29T22:26:58.141Z,6.40
2019-03-29T22:29:29.355Z,7.80
2019-03-29T22:32:00.930Z,9.57
2019-03-29T22:34:32.347Z,6.07
2019-03-29T22:37:03.655Z,8.40
2019-03-29T22:39:35.010Z,12.20
2019-03-29T22:42:06.356Z,8.10
2019-03-29T22:44:37.665Z,7.97
2019-03-29T22:47:08.973Z,5.80
2019-03-29T22:49:40.453Z,10.13
2019-03-29T22:52:11.861Z,7.20
2019-03-29T22:54:43.069Z,9.57
2019-03-29T22:57:14.386Z,7.03
2019-03-29T22:59:45.774Z,7.07
2019-03-29T23:02:17.538Z,8.67
2019-03-29T23:04:48.925Z,9.30
2019-03-29T23:07:20.300Z,11.70
2019-03-29T23:09:51.617Z,7.80
2019-03-29T23:12:22.967Z,5.77
2019-03-29T23:14:54.291Z,10.80
2019-03-29T23:17:25.671Z,20.57
2019-03-29T23:19:56.919Z,10.20
2019-03-29T23:22:28.189Z,7.33
2019-03-29T23:24:59.744Z,15.23
2019-03-29T23:27:31.068Z,12.53
2019-03-29T23:30:02.317Z,11.30
2019-03-29T23:32:33.568Z,10.83
2019-03-29T23:35:04.994Z,7.00
2019-03-29T23:37:36.341Z,8.47
2019-03-29T23:40:08.341Z,11.50
2019-03-29T23:42:39.622Z,7.97
2019-03-29T23:45:11.425Z,6.90
2019-03-29T23:47:42.657Z,12.70
2019-03-29T23:50:14.098Z,6.60
2019-03-29T23:52:45.344Z,15.53
2019-03-29T23:55:16.568Z,7.27
2019-03-29T23:57:47.833Z,10.30
